Antalya International Airport

LTAI · 安塔利亚省, 土耳其

罗盘
风向 的 Antalya International Airport 18C/36C
风: 2 kt, 1 beaufort

2 kt

改变
0 ft 5.000 10.000 15.000 20.000
Cloud Cloud
FEW 3.000
Cloud Cloud Cloud Cloud
SCT 20.000
METAR LTAI 012350Z VRB02KT 9999 FEW030 SCT200 11/08 Q1014 NOSIG RMK RWY18C 30002KT RWY36R /////KT RWY18L VRB02KT

METAR Antalya International Airport - LTAI/AYT

Antalya International Airport是,土耳其中的大型机场。 该机场位于纬度36,89960和经度30,79750。 该机场有3条跑道: 18C/36C, 18R/36L 和 18L/36R. 本场的ICAO机场代码为LTAI。 该机场的IATA代码为AYT。 机场在Ankara FIR中。

该航空气象观测是针对Antalya International Airport在2024年3月2日 02:50, 当地时间进行的。

机场观察

可变方向的风很小或没有风。

可见度为10 km 或者更多。

有几云在3.000 ft的高度 和 疏云,零星散落的云朵在20.000 ft的高度。 没有观察到天花板。

温度和风寒是11 °C。 露点为8 °C,相对湿度为82%。 海平面上的气压为1014 hPa (QNH)。

白天

今天,太阳从07:25升起,在18:52降落。 这适用于Antalya International Airport,世界夏令时可能有所不同。 当地时间与世界标准时间之间的时差为+3 小时。 当前,没有夏令时有效。

公司介绍

我们没有关于这个机场的公司信息。

体会

到Vliegles.nl去找飞行课程,跳伞和其他飞行体验。 浏览页面,了解Antalya International Airport附近所有可用的活动。 你也可以使用搜索功能来寻找你所在地附近的特定飞行课程、跳伞或其他飞行体验。

跑道

Id 标题 侧风 逆风 侧风 %
18C/36C 186°-006° 2 kt 10 %
18R/36L 186°-006° 2 kt 10 %
18L/36R 186°-006° 2 kt 10 %

逆风成分最大的方向会被突出显示,并用于横风计算。 这并不一定意味着这个方向在使用。

乌云

3.000 ft FEW 几云
20.000 ft SCT 疏云,零星散落的云朵

温度 & 天气

温度 11 °C
露点 8 °C
相对湿度 82%
Kp-index 0 (0-9)

评论

VRB02KT未知降水 开始于 02, 结束于
RWY18C 30002KT RWY36R /////KT RWY18L

白天

日出
07:26 (4:11)
中午
13:09
日落
18:51

小工具

你想在你的网站上有一个关于Antalya International Airport的当前航空天气(METAR)的小部件吗?

显示HTML代码
?>